Martin, Oklahoma
Current Conditions -  °F | °C
As of 5:53 PM on Wednesday 22 Oct 2014 (Local Time) from KMKO Reporting Station
Clear Clear  
Wind Chill: 72°   Ceiling: Unl
Heat Index: 72°   Visibility: 10mi
Dew Point: 57°   Wind: 9mph
Humidity: 59%   Direction: 110°ESE
Pressure: 30.11"   Gusts: NA
Location:  35.6818°N, 95.3578°W
Report Text: KMKO 222253Z AUTO 11008KT 10SM CLR 22/14 A3011 RMK AO2 SLP192 T02220139
Loading
Personal Weather Stations






























Interactive Weather Map
Tropical Storm Tracking
New forecast layout! Learn more

10-Day Weather Forecast

Advertisements
Track Severe Weather on mobile